sensor_id;sensor_type;location;lat;lon;timestamp;P1;durP1;ratioP1;P2;durP2;ratioP2
9508;SDS011;4792;50.088;8.122;2023-05-10T00:00:40;1.00;;;1.00;;
9508;SDS011;4792;50.088;8.122;2023-05-10T00:03:10;3.40;;;0.93;;
9508;SDS011;4792;50.088;8.122;2023-05-10T00:05:39;1.43;;;0.83;;
9508;SDS011;4792;50.088;8.122;2023-05-10T00:08:07;1.27;;;0.70;;
9508;SDS011;4792;50.088;8.122;2023-05-10T00:10:35;1.63;;;0.70;;
9508;SDS011;4792;50.088;8.122;2023-05-10T00:13:04;0.60;;;0.60;;
9508;SDS011;4792;50.088;8.122;2023-05-10T00:15:35;0.70;;;0.70;;
9508;SDS011;4792;50.088;8.122;2023-05-10T00:18:03;1.30;;;1.10;;
9508;SDS011;4792;50.088;8.122;2023-05-10T00:20:31;5.53;;;2.50;;
9508;SDS011;4792;50.088;8.122;2023-05-10T00:23:01;2.13;;;0.73;;
9508;SDS011;4792;50.088;8.122;2023-05-10T00:25:29;3.30;;;1.10;;
9508;SDS011;4792;50.088;8.122;2023-05-10T00:27:56;4.57;;;1.53;;
9508;SDS011;4792;50.088;8.122;2023-05-10T00:30:24;0.70;;;0.70;;
9508;SDS011;4792;50.088;8.122;2023-05-10T00:32:52;1.60;;;1.20;;
9508;SDS011;4792;50.088;8.122;2023-05-10T00:35:20;0.80;;;0.77;;
9508;SDS011;4792;50.088;8.122;2023-05-10T00:37:48;5.27;;;1.73;;
9508;SDS011;4792;50.088;8.122;2023-05-10T00:40:18;1.07;;;0.90;;
9508;SDS011;4792;50.088;8.122;2023-05-10T00:42:45;1.23;;;0.80;;
9508;SDS011;4792;50.088;8.122;2023-05-10T00:45:14;2.07;;;1.77;;
9508;SDS011;4792;50.088;8.122;2023-05-10T00:47:42;1.67;;;0.63;;
9508;SDS011;4792;50.088;8.122;2023-05-10T00:50:10;5.07;;;3.97;;
9508;SDS011;4792;50.088;8.122;2023-05-10T00:52:38;1.53;;;0.90;;
9508;SDS011;4792;50.088;8.122;2023-05-10T00:55:07;7.83;;;5.87;;
9508;SDS011;4792;50.088;8.122;2023-05-10T00:57:37;2.87;;;0.90;;
9508;SDS011;4792;50.088;8.122;2023-05-10T01:00:05;1.67;;;1.23;;
9508;SDS011;4792;50.088;8.122;2023-05-10T01:02:34;2.63;;;1.60;;
9508;SDS011;4792;50.088;8.122;2023-05-10T01:05:02;1.20;;;1.10;;
9508;SDS011;4792;50.088;8.122;2023-05-10T01:07:31;1.60;;;1.00;;
9508;SDS011;4792;50.088;8.122;2023-05-10T01:09:59;0.80;;;0.80;;
9508;SDS011;4792;50.088;8.122;2023-05-10T01:12:27;1.17;;;0.90;;
9508;SDS011;4792;50.088;8.122;2023-05-10T01:14:56;0.70;;;0.70;;
9508;SDS011;4792;50.088;8.122;2023-05-10T01:17:24;0.97;;;0.97;;
9508;SDS011;4792;50.088;8.122;2023-05-10T01:19:53;0.67;;;0.67;;
9508;SDS011;4792;50.088;8.122;2023-05-10T01:22:36;3.07;;;0.93;;
9508;SDS011;4792;50.088;8.122;2023-05-10T01:25:22;0.87;;;0.87;;
9508;SDS011;4792;50.088;8.122;2023-05-10T01:28:16;0.80;;;0.80;;
9508;SDS011;4792;50.088;8.122;2023-05-10T01:33:43;2.60;;;0.90;;
9508;SDS011;4792;50.088;8.122;2023-05-10T01:36:19;0.77;;;0.70;;
9508;SDS011;4792;50.088;8.122;2023-05-10T01:38:53;1.03;;;0.80;;
9508;SDS011;4792;50.088;8.122;2023-05-10T01:41:25;3.23;;;0.87;;
9508;SDS011;4792;50.088;8.122;2023-05-10T01:43:57;0.73;;;0.73;;
9508;SDS011;4792;50.088;8.122;2023-05-10T01:46:34;0.80;;;0.80;;
9508;SDS011;4792;50.088;8.122;2023-05-10T01:49:07;1.30;;;0.80;;
9508;SDS011;4792;50.088;8.122;2023-05-10T01:51:37;0.80;;;0.80;;
9508;SDS011;4792;50.088;8.122;2023-05-10T01:54:07;0.90;;;0.90;;
9508;SDS011;4792;50.088;8.122;2023-05-10T01:56:37;1.03;;;0.90;;
9508;SDS011;4792;50.088;8.122;2023-05-10T01:59:06;0.90;;;0.80;;
9508;SDS011;4792;50.088;8.122;2023-05-10T02:01:38;0.90;;;0.90;;
9508;SDS011;4792;50.088;8.122;2023-05-10T02:04:07;1.50;;;1.00;;
9508;SDS011;4792;50.088;8.122;2023-05-10T02:06:36;3.40;;;0.90;;
9508;SDS011;4792;50.088;8.122;2023-05-10T02:09:05;1.10;;;1.00;;
9508;SDS011;4792;50.088;8.122;2023-05-10T02:11:34;2.67;;;1.10;;
9508;SDS011;4792;50.088;8.122;2023-05-10T02:14:02;1.30;;;0.80;;
9508;SDS011;4792;50.088;8.122;2023-05-10T02:16:31;1.03;;;1.00;;
9508;SDS011;4792;50.088;8.122;2023-05-10T02:18:59;0.93;;;0.90;;
9508;SDS011;4792;50.088;8.122;2023-05-10T02:21:30;1.47;;;1.10;;
9508;SDS011;4792;50.088;8.122;2023-05-10T02:23:59;1.20;;;1.10;;
9508;SDS011;4792;50.088;8.122;2023-05-10T02:26:28;1.33;;;1.23;;
9508;SDS011;4792;50.088;8.122;2023-05-10T02:28:56;1.30;;;1.20;;
9508;SDS011;4792;50.088;8.122;2023-05-10T02:31:25;1.43;;;1.30;;
9508;SDS011;4792;50.088;8.122;2023-05-10T02:33:53;2.47;;;1.57;;
9508;SDS011;4792;50.088;8.122;2023-05-10T02:36:21;3.43;;;1.27;;
9508;SDS011;4792;50.088;8.122;2023-05-10T02:38:51;2.80;;;1.23;;
9508;SDS011;4792;50.088;8.122;2023-05-10T02:41:20;5.70;;;2.10;;
9508;SDS011;4792;50.088;8.122;2023-05-10T02:43:49;2.50;;;1.57;;
9508;SDS011;4792;50.088;8.122;2023-05-10T02:46:17;6.60;;;2.37;;
9508;SDS011;4792;50.088;8.122;2023-05-10T02:48:46;24.33;;;3.40;;
9508;SDS011;4792;50.088;8.122;2023-05-10T02:51:13;44.90;;;4.07;;
9508;SDS011;4792;50.088;8.122;2023-05-10T02:53:44;40.40;;;4.27;;
9508;SDS011;4792;50.088;8.122;2023-05-10T02:56:18;17.83;;;3.70;;
9508;SDS011;4792;50.088;8.122;2023-05-10T02:58:49;14.10;;;3.80;;
9508;SDS011;4792;50.088;8.122;2023-05-10T03:01:16;5.63;;;3.30;;
9508;SDS011;4792;50.088;8.122;2023-05-10T03:03:44;70.03;;;6.83;;
9508;SDS011;4792;50.088;8.122;2023-05-10T03:06:12;29.57;;;4.30;;
9508;SDS011;4792;50.088;8.122;2023-05-10T03:08:40;6.47;;;3.50;;
9508;SDS011;4792;50.088;8.122;2023-05-10T03:11:14;5.23;;;3.43;;
9508;SDS011;4792;50.088;8.122;2023-05-10T03:13:54;10.67;;;3.67;;
9508;SDS011;4792;50.088;8.122;2023-05-10T03:16:27;6.00;;;4.03;;
9508;SDS011;4792;50.088;8.122;2023-05-10T03:19:12;56.30;;;5.33;;
9508;SDS011;4792;50.088;8.122;2023-05-10T03:21:47;103.80;;;7.60;;
9508;SDS011;4792;50.088;8.122;2023-05-10T03:24:17;14.43;;;4.10;;
9508;SDS011;4792;50.088;8.122;2023-05-10T03:26:47;17.80;;;5.53;;
9508;SDS011;4792;50.088;8.122;2023-05-10T03:29:16;6.27;;;4.30;;
9508;SDS011;4792;50.088;8.122;2023-05-10T03:31:44;4.50;;;3.67;;
9508;SDS011;4792;50.088;8.122;2023-05-10T03:34:12;5.80;;;4.03;;
9508;SDS011;4792;50.088;8.122;2023-05-10T03:36:40;4.33;;;3.97;;
9508;SDS011;4792;50.088;8.122;2023-05-10T03:39:08;3.77;;;3.47;;
9508;SDS011;4792;50.088;8.122;2023-05-10T03:41:36;4.53;;;3.40;;
9508;SDS011;4792;50.088;8.122;2023-05-10T03:44:05;8.03;;;4.10;;
9508;SDS011;4792;50.088;8.122;2023-05-10T03:46:33;6.83;;;3.57;;
9508;SDS011;4792;50.088;8.122;2023-05-10T03:49:01;4.10;;;3.27;;
9508;SDS011;4792;50.088;8.122;2023-05-10T03:51:29;6.47;;;4.20;;
9508;SDS011;4792;50.088;8.122;2023-05-10T03:53:57;22.63;;;4.50;;
9508;SDS011;4792;50.088;8.122;2023-05-10T03:56:25;14.20;;;4.07;;
9508;SDS011;4792;50.088;8.122;2023-05-10T03:58:53;3.70;;;3.40;;
9508;SDS011;4792;50.088;8.122;2023-05-10T04:01:22;3.87;;;3.57;;
9508;SDS011;4792;50.088;8.122;2023-05-10T04:03:49;5.97;;;3.80;;
9508;SDS011;4792;50.088;8.122;2023-05-10T04:06:18;9.33;;;4.83;;
9508;SDS011;4792;50.088;8.122;2023-05-10T04:08:45;49.67;;;5.87;;
9508;SDS011;4792;50.088;8.122;2023-05-10T04:11:13;75.43;;;6.53;;
9508;SDS011;4792;50.088;8.122;2023-05-10T04:13:41;61.53;;;5.17;;
9508;SDS011;4792;50.088;8.122;2023-05-10T04:16:09;101.47;;;6.93;;
9508;SDS011;4792;50.088;8.122;2023-05-10T04:18:39;43.27;;;4.77;;
9508;SDS011;4792;50.088;8.122;2023-05-10T04:21:10;55.47;;;6.53;;
9508;SDS011;4792;50.088;8.122;2023-05-10T04:23:39;261.80;;;12.23;;
9508;SDS011;4792;50.088;8.122;2023-05-10T04:26:07;7.77;;;3.40;;
9508;SDS011;4792;50.088;8.122;2023-05-10T04:28:35;8.80;;;3.60;;
9508;SDS011;4792;50.088;8.122;2023-05-10T04:31:03;4.23;;;3.80;;
9508;SDS011;4792;50.088;8.122;2023-05-10T04:33:31;7.33;;;4.30;;
9508;SDS011;4792;50.088;8.122;2023-05-10T04:36:00;4.63;;;3.80;;
9508;SDS011;4792;50.088;8.122;2023-05-10T04:38:28;4.23;;;3.87;;
9508;SDS011;4792;50.088;8.122;2023-05-10T04:41:03;6.67;;;4.17;;
9508;SDS011;4792;50.088;8.122;2023-05-10T04:43:31;7.10;;;4.67;;
9508;SDS011;4792;50.088;8.122;2023-05-10T04:45:59;20.30;;;5.23;;
9508;SDS011;4792;50.088;8.122;2023-05-10T04:48:27;5.23;;;3.93;;
9508;SDS011;4792;50.088;8.122;2023-05-10T04:50:55;4.37;;;3.97;;
9508;SDS011;4792;50.088;8.122;2023-05-10T04:53:24;4.57;;;3.47;;
9508;SDS011;4792;50.088;8.122;2023-05-10T04:55:52;7.13;;;3.20;;
9508;SDS011;4792;50.088;8.122;2023-05-10T04:58:19;4.90;;;3.90;;
9508;SDS011;4792;50.088;8.122;2023-05-10T05:00:47;16.97;;;3.83;;
9508;SDS011;4792;50.088;8.122;2023-05-10T05:03:15;4.47;;;3.90;;
9508;SDS011;4792;50.088;8.122;2023-05-10T05:05:43;72.37;;;7.90;;
9508;SDS011;4792;50.088;8.122;2023-05-10T05:08:11;50.67;;;5.73;;
9508;SDS011;4792;50.088;8.122;2023-05-10T05:10:41;20.87;;;5.60;;
9508;SDS011;4792;50.088;8.122;2023-05-10T05:13:09;62.40;;;8.03;;
9508;SDS011;4792;50.088;8.122;2023-05-10T05:15:37;57.50;;;6.90;;
9508;SDS011;4792;50.088;8.122;2023-05-10T05:18:05;29.30;;;5.17;;
9508;SDS011;4792;50.088;8.122;2023-05-10T05:20:33;15.83;;;4.80;;
9508;SDS011;4792;50.088;8.122;2023-05-10T05:23:01;11.90;;;5.00;;
9508;SDS011;4792;50.088;8.122;2023-05-10T05:25:29;36.13;;;5.73;;
9508;SDS011;4792;50.088;8.122;2023-05-10T05:27:58;13.17;;;4.50;;
9508;SDS011;4792;50.088;8.122;2023-05-10T05:30:26;9.37;;;5.07;;
9508;SDS011;4792;50.088;8.122;2023-05-10T05:32:54;11.63;;;5.20;;
9508;SDS011;4792;50.088;8.122;2023-05-10T05:35:21;6.13;;;4.73;;
9508;SDS011;4792;50.088;8.122;2023-05-10T05:37:49;9.40;;;4.90;;
9508;SDS011;4792;50.088;8.122;2023-05-10T05:40:17;8.30;;;4.90;;
9508;SDS011;4792;50.088;8.122;2023-05-10T05:42:46;9.13;;;4.20;;
9508;SDS011;4792;50.088;8.122;2023-05-10T05:45:15;6.23;;;3.60;;
9508;SDS011;4792;50.088;8.122;2023-05-10T05:47:44;7.70;;;4.23;;
9508;SDS011;4792;50.088;8.122;2023-05-10T05:50:13;6.53;;;3.70;;
9508;SDS011;4792;50.088;8.122;2023-05-10T05:52:41;9.80;;;3.87;;
9508;SDS011;4792;50.088;8.122;2023-05-10T05:55:08;9.17;;;3.30;;
9508;SDS011;4792;50.088;8.122;2023-05-10T05:57:36;5.17;;;3.20;;
9508;SDS011;4792;50.088;8.122;2023-05-10T06:00:05;7.03;;;3.30;;
9508;SDS011;4792;50.088;8.122;2023-05-10T06:02:35;7.60;;;3.20;;
9508;SDS011;4792;50.088;8.122;2023-05-10T06:05:03;4.47;;;2.90;;
9508;SDS011;4792;50.088;8.122;2023-05-10T06:07:31;7.23;;;2.70;;
9508;SDS011;4792;50.088;8.122;2023-05-10T06:09:59;6.70;;;2.70;;
9508;SDS011;4792;50.088;8.122;2023-05-10T06:12:27;6.13;;;2.20;;
9508;SDS011;4792;50.088;8.122;2023-05-10T06:14:55;6.40;;;2.40;;
9508;SDS011;4792;50.088;8.122;2023-05-10T06:17:22;3.43;;;2.50;;
9508;SDS011;4792;50.088;8.122;2023-05-10T06:19:52;11.50;;;2.67;;
9508;SDS011;4792;50.088;8.122;2023-05-10T06:22:20;7.20;;;2.60;;
9508;SDS011;4792;50.088;8.122;2023-05-10T06:24:49;4.73;;;2.47;;
9508;SDS011;4792;50.088;8.122;2023-05-10T06:27:16;4.33;;;2.17;;
9508;SDS011;4792;50.088;8.122;2023-05-10T06:29:44;2.87;;;2.53;;
9508;SDS011;4792;50.088;8.122;2023-05-10T06:32:12;5.40;;;2.30;;
9508;SDS011;4792;50.088;8.122;2023-05-10T06:34:40;13.03;;;2.73;;
9508;SDS011;4792;50.088;8.122;2023-05-10T06:37:10;2.33;;;2.00;;
9508;SDS011;4792;50.088;8.122;2023-05-10T06:39:38;5.57;;;2.50;;
9508;SDS011;4792;50.088;8.122;2023-05-10T06:42:06;2.57;;;2.20;;
9508;SDS011;4792;50.088;8.122;2023-05-10T06:44:34;6.10;;;2.20;;
9508;SDS011;4792;50.088;8.122;2023-05-10T06:47:02;6.50;;;2.63;;
9508;SDS011;4792;50.088;8.122;2023-05-10T06:49:30;5.67;;;2.73;;
9508;SDS011;4792;50.088;8.122;2023-05-10T06:51:57;4.10;;;2.30;;
9508;SDS011;4792;50.088;8.122;2023-05-10T06:54:27;8.60;;;2.60;;
9508;SDS011;4792;50.088;8.122;2023-05-10T06:56:54;4.60;;;2.40;;
9508;SDS011;4792;50.088;8.122;2023-05-10T06:59:22;4.60;;;2.30;;
9508;SDS011;4792;50.088;8.122;2023-05-10T07:01:50;5.00;;;2.17;;
9508;SDS011;4792;50.088;8.122;2023-05-10T07:04:18;5.07;;;2.23;;
9508;SDS011;4792;50.088;8.122;2023-05-10T07:06:46;2.73;;;2.10;;
9508;SDS011;4792;50.088;8.122;2023-05-10T07:09:15;5.77;;;2.30;;
9508;SDS011;4792;50.088;8.122;2023-05-10T07:11:44;3.13;;;2.30;;
9508;SDS011;4792;50.088;8.122;2023-05-10T07:14:12;3.40;;;2.33;;
9508;SDS011;4792;50.088;8.122;2023-05-10T07:16:40;4.80;;;2.10;;
9508;SDS011;4792;50.088;8.122;2023-05-10T07:19:08;4.70;;;1.97;;
9508;SDS011;4792;50.088;8.122;2023-05-10T07:21:36;5.47;;;2.10;;
9508;SDS011;4792;50.088;8.122;2023-05-10T07:24:04;4.57;;;2.20;;
9508;SDS011;4792;50.088;8.122;2023-05-10T07:26:32;4.27;;;1.97;;
9508;SDS011;4792;50.088;8.122;2023-05-10T07:29:01;3.90;;;2.13;;
9508;SDS011;4792;50.088;8.122;2023-05-10T07:31:29;3.50;;;2.03;;
9508;SDS011;4792;50.088;8.122;2023-05-10T07:33:57;4.23;;;2.10;;
9508;SDS011;4792;50.088;8.122;2023-05-10T07:36:25;4.43;;;2.33;;
9508;SDS011;4792;50.088;8.122;2023-05-10T07:38:52;8.13;;;2.30;;
9508;SDS011;4792;50.088;8.122;2023-05-10T07:41:20;3.27;;;1.80;;
9508;SDS011;4792;50.088;8.122;2023-05-10T07:43:48;4.97;;;2.50;;
9508;SDS011;4792;50.088;8.122;2023-05-10T07:46:17;4.83;;;2.30;;
9508;SDS011;4792;50.088;8.122;2023-05-10T07:48:46;3.97;;;2.07;;
9508;SDS011;4792;50.088;8.122;2023-05-10T07:51:13;3.77;;;2.00;;
9508;SDS011;4792;50.088;8.122;2023-05-10T07:53:41;3.63;;;2.17;;
9508;SDS011;4792;50.088;8.122;2023-05-10T07:56:22;2.87;;;2.20;;
9508;SDS011;4792;50.088;8.122;2023-05-10T07:58:51;7.00;;;2.33;;
9508;SDS011;4792;50.088;8.122;2023-05-10T08:01:20;7.77;;;2.13;;
9508;SDS011;4792;50.088;8.122;2023-05-10T08:03:48;3.00;;;1.93;;
9508;SDS011;4792;50.088;8.122;2023-05-10T08:06:17;4.33;;;2.13;;
9508;SDS011;4792;50.088;8.122;2023-05-10T08:08:45;6.23;;;2.60;;
9508;SDS011;4792;50.088;8.122;2023-05-10T08:11:15;5.07;;;2.60;;
9508;SDS011;4792;50.088;8.122;2023-05-10T08:13:43;5.43;;;2.27;;
9508;SDS011;4792;50.088;8.122;2023-05-10T08:16:11;6.70;;;2.40;;
9508;SDS011;4792;50.088;8.122;2023-05-10T08:18:41;4.20;;;2.40;;
9508;SDS011;4792;50.088;8.122;2023-05-10T08:21:09;6.90;;;2.60;;
9508;SDS011;4792;50.088;8.122;2023-05-10T08:23:37;5.83;;;2.20;;
9508;SDS011;4792;50.088;8.122;2023-05-10T08:26:05;2.93;;;2.30;;
9508;SDS011;4792;50.088;8.122;2023-05-10T08:28:33;5.90;;;2.53;;
9508;SDS011;4792;50.088;8.122;2023-05-10T08:31:01;3.67;;;2.33;;
9508;SDS011;4792;50.088;8.122;2023-05-10T08:33:29;4.53;;;2.13;;
9508;SDS011;4792;50.088;8.122;2023-05-10T08:35:58;7.13;;;2.40;;
9508;SDS011;4792;50.088;8.122;2023-05-10T08:38:26;3.77;;;2.07;;
9508;SDS011;4792;50.088;8.122;2023-05-10T08:40:54;3.43;;;2.07;;
9508;SDS011;4792;50.088;8.122;2023-05-10T08:43:26;2.93;;;2.10;;
9508;SDS011;4792;50.088;8.122;2023-05-10T08:45:55;3.07;;;2.00;;
9508;SDS011;4792;50.088;8.122;2023-05-10T08:48:23;3.00;;;1.90;;
9508;SDS011;4792;50.088;8.122;2023-05-10T08:50:52;3.63;;;1.90;;
9508;SDS011;4792;50.088;8.122;2023-05-10T08:53:23;3.20;;;2.40;;
9508;SDS011;4792;50.088;8.122;2023-05-10T08:55:53;2.97;;;2.03;;
9508;SDS011;4792;50.088;8.122;2023-05-10T08:58:22;4.70;;;2.03;;
9508;SDS011;4792;50.088;8.122;2023-05-10T09:00:50;4.63;;;1.93;;
9508;SDS011;4792;50.088;8.122;2023-05-10T09:03:18;5.87;;;1.80;;
9508;SDS011;4792;50.088;8.122;2023-05-10T09:05:46;5.83;;;2.00;;
9508;SDS011;4792;50.088;8.122;2023-05-10T09:08:14;5.17;;;2.17;;
9508;SDS011;4792;50.088;8.122;2023-05-10T09:10:44;4.20;;;1.90;;
9508;SDS011;4792;50.088;8.122;2023-05-10T09:13:13;4.13;;;2.00;;
9508;SDS011;4792;50.088;8.122;2023-05-10T09:15:43;4.37;;;1.73;;
9508;SDS011;4792;50.088;8.122;2023-05-10T09:18:11;3.37;;;1.80;;
9508;SDS011;4792;50.088;8.122;2023-05-10T09:20:40;6.80;;;1.83;;
9508;SDS011;4792;50.088;8.122;2023-05-10T09:23:08;3.57;;;1.60;;
9508;SDS011;4792;50.088;8.122;2023-05-10T09:25:36;4.37;;;1.77;;
9508;SDS011;4792;50.088;8.122;2023-05-10T09:28:07;2.83;;;1.43;;
9508;SDS011;4792;50.088;8.122;2023-05-10T09:30:35;2.50;;;1.30;;
9508;SDS011;4792;50.088;8.122;2023-05-10T09:33:03;1.63;;;1.20;;
9508;SDS011;4792;50.088;8.122;2023-05-10T09:35:32;2.87;;;1.23;;
9508;SDS011;4792;50.088;8.122;2023-05-10T09:38:00;3.53;;;1.40;;
9508;SDS011;4792;50.088;8.122;2023-05-10T09:40:30;2.27;;;1.47;;
9508;SDS011;4792;50.088;8.122;2023-05-10T09:42:59;1.63;;;1.30;;
9508;SDS011;4792;50.088;8.122;2023-05-10T09:45:29;3.00;;;1.10;;
9508;SDS011;4792;50.088;8.122;2023-05-10T09:47:58;2.00;;;1.03;;
9508;SDS011;4792;50.088;8.122;2023-05-10T09:50:28;1.57;;;1.20;;
9508;SDS011;4792;50.088;8.122;2023-05-10T09:52:56;2.13;;;1.13;;
9508;SDS011;4792;50.088;8.122;2023-05-10T09:55:37;3.60;;;1.00;;
9508;SDS011;4792;50.088;8.122;2023-05-10T09:58:06;3.00;;;0.83;;
9508;SDS011;4792;50.088;8.122;2023-05-10T10:00:39;3.00;;;1.10;;
9508;SDS011;4792;50.088;8.122;2023-05-10T10:03:11;2.50;;;1.10;;
9508;SDS011;4792;50.088;8.122;2023-05-10T10:05:40;6.83;;;1.13;;
9508;SDS011;4792;50.088;8.122;2023-05-10T10:08:08;4.80;;;1.30;;
9508;SDS011;4792;50.088;8.122;2023-05-10T10:10:37;2.30;;;0.90;;
9508;SDS011;4792;50.088;8.122;2023-05-10T10:13:06;4.23;;;1.00;;
9508;SDS011;4792;50.088;8.122;2023-05-10T10:15:34;0.87;;;0.80;;
9508;SDS011;4792;50.088;8.122;2023-05-10T10:18:04;1.13;;;0.90;;
9508;SDS011;4792;50.088;8.122;2023-05-10T10:20:33;2.10;;;1.00;;
9508;SDS011;4792;50.088;8.122;2023-05-10T10:23:01;0.90;;;0.90;;
9508;SDS011;4792;50.088;8.122;2023-05-10T10:25:29;1.60;;;1.07;;
9508;SDS011;4792;50.088;8.122;2023-05-10T10:28:00;2.77;;;0.70;;
9508;SDS011;4792;50.088;8.122;2023-05-10T10:30:38;1.07;;;0.90;;
9508;SDS011;4792;50.088;8.122;2023-05-10T10:36:02;3.13;;;0.90;;
9508;SDS011;4792;50.088;8.122;2023-05-10T10:38:37;2.27;;;1.27;;
9508;SDS011;4792;50.088;8.122;2023-05-10T10:41:28;0.60;;;0.60;;
9508;SDS011;4792;50.088;8.122;2023-05-10T10:46:59;0.90;;;0.70;;
9508;SDS011;4792;50.088;8.122;2023-05-10T10:49:31;2.77;;;0.90;;
9508;SDS011;4792;50.088;8.122;2023-05-10T10:52:12;2.30;;;1.10;;
9508;SDS011;4792;50.088;8.122;2023-05-10T10:54:41;3.83;;;0.80;;
9508;SDS011;4792;50.088;8.122;2023-05-10T10:57:12;3.53;;;1.07;;
9508;SDS011;4792;50.088;8.122;2023-05-10T10:59:43;7.50;;;1.63;;
9508;SDS011;4792;50.088;8.122;2023-05-10T11:02:20;3.60;;;1.07;;
9508;SDS011;4792;50.088;8.122;2023-05-10T11:05:03;1.93;;;1.00;;
9508;SDS011;4792;50.088;8.122;2023-05-10T11:07:53;1.27;;;1.10;;
9508;SDS011;4792;50.088;8.122;2023-05-10T11:10:21;4.07;;;1.13;;
9508;SDS011;4792;50.088;8.122;2023-05-10T11:12:53;1.27;;;0.93;;
9508;SDS011;4792;50.088;8.122;2023-05-10T11:15:28;1.20;;;1.00;;
9508;SDS011;4792;50.088;8.122;2023-05-10T11:17:57;3.03;;;0.97;;
9508;SDS011;4792;50.088;8.122;2023-05-10T11:20:28;1.13;;;1.03;;
9508;SDS011;4792;50.088;8.122;2023-05-10T11:23:10;1.33;;;0.90;;
9508;SDS011;4792;50.088;8.122;2023-05-10T11:25:41;1.20;;;1.10;;
9508;SDS011;4792;50.088;8.122;2023-05-10T11:28:10;3.03;;;1.03;;
9508;SDS011;4792;50.088;8.122;2023-05-10T11:30:38;2.20;;;1.10;;
9508;SDS011;4792;50.088;8.122;2023-05-10T11:33:07;1.07;;;0.87;;
9508;SDS011;4792;50.088;8.122;2023-05-10T11:35:39;1.83;;;1.00;;
9508;SDS011;4792;50.088;8.122;2023-05-10T11:38:09;2.03;;;1.00;;
9508;SDS011;4792;50.088;8.122;2023-05-10T11:40:37;2.80;;;1.20;;
9508;SDS011;4792;50.088;8.122;2023-05-10T11:43:06;2.50;;;1.03;;
9508;SDS011;4792;50.088;8.122;2023-05-10T11:45:34;1.80;;;1.03;;
9508;SDS011;4792;50.088;8.122;2023-05-10T11:48:02;1.60;;;0.97;;
9508;SDS011;4792;50.088;8.122;2023-05-10T11:50:30;2.57;;;0.90;;
9508;SDS011;4792;50.088;8.122;2023-05-10T11:52:59;1.67;;;0.90;;
9508;SDS011;4792;50.088;8.122;2023-05-10T11:55:27;1.77;;;0.80;;
9508;SDS011;4792;50.088;8.122;2023-05-10T11:58:01;1.70;;;0.90;;
9508;SDS011;4792;50.088;8.122;2023-05-10T12:00:29;1.03;;;1.03;;
9508;SDS011;4792;50.088;8.122;2023-05-10T12:02:57;1.33;;;0.77;;
9508;SDS011;4792;50.088;8.122;2023-05-10T12:05:26;1.17;;;0.93;;
9508;SDS011;4792;50.088;8.122;2023-05-10T12:10:41;1.80;;;1.07;;
9508;SDS011;4792;50.088;8.122;2023-05-10T12:13:12;3.37;;;1.10;;
9508;SDS011;4792;50.088;8.122;2023-05-10T12:15:41;1.07;;;0.90;;
9508;SDS011;4792;50.088;8.122;2023-05-10T12:18:11;4.70;;;1.00;;
9508;SDS011;4792;50.088;8.122;2023-05-10T12:20:39;2.60;;;0.80;;
9508;SDS011;4792;50.088;8.122;2023-05-10T12:23:08;3.03;;;1.93;;
9508;SDS011;4792;50.088;8.122;2023-05-10T12:25:38;1.30;;;1.10;;
9508;SDS011;4792;50.088;8.122;2023-05-10T12:28:07;2.80;;;0.90;;
9508;SDS011;4792;50.088;8.122;2023-05-10T12:30:36;1.03;;;1.00;;
9508;SDS011;4792;50.088;8.122;2023-05-10T12:33:07;3.30;;;1.00;;
9508;SDS011;4792;50.088;8.122;2023-05-10T12:35:45;7.70;;;1.00;;
9508;SDS011;4792;50.088;8.122;2023-05-10T12:38:27;1.20;;;0.93;;
9508;SDS011;4792;50.088;8.122;2023-05-10T12:40:59;2.00;;;1.17;;
9508;SDS011;4792;50.088;8.122;2023-05-10T12:43:28;2.80;;;0.90;;
9508;SDS011;4792;50.088;8.122;2023-05-10T12:45:56;3.47;;;1.00;;
9508;SDS011;4792;50.088;8.122;2023-05-10T12:48:25;1.20;;;1.00;;
9508;SDS011;4792;50.088;8.122;2023-05-10T12:50:55;0.80;;;0.80;;
9508;SDS011;4792;50.088;8.122;2023-05-10T12:53:22;1.10;;;1.00;;
9508;SDS011;4792;50.088;8.122;2023-05-10T12:55:50;1.00;;;1.00;;
9508;SDS011;4792;50.088;8.122;2023-05-10T12:58:19;1.20;;;0.90;;
9508;SDS011;4792;50.088;8.122;2023-05-10T13:00:52;0.90;;;0.80;;
9508;SDS011;4792;50.088;8.122;2023-05-10T13:03:22;0.73;;;0.73;;
9508;SDS011;4792;50.088;8.122;2023-05-10T13:05:50;1.10;;;0.90;;
9508;SDS011;4792;50.088;8.122;2023-05-10T13:08:18;1.10;;;1.00;;
9508;SDS011;4792;50.088;8.122;2023-05-10T13:10:46;0.90;;;0.90;;
9508;SDS011;4792;50.088;8.122;2023-05-10T13:13:15;3.00;;;0.80;;
9508;SDS011;4792;50.088;8.122;2023-05-10T13:15:45;2.10;;;0.87;;
9508;SDS011;4792;50.088;8.122;2023-05-10T13:18:13;1.17;;;0.80;;
9508;SDS011;4792;50.088;8.122;2023-05-10T13:20:41;0.83;;;0.83;;
9508;SDS011;4792;50.088;8.122;2023-05-10T13:23:10;3.30;;;1.00;;
9508;SDS011;4792;50.088;8.122;2023-05-10T13:25:38;1.30;;;1.03;;
9508;SDS011;4792;50.088;8.122;2023-05-10T13:28:06;1.27;;;1.10;;
9508;SDS011;4792;50.088;8.122;2023-05-10T13:30:34;2.43;;;1.10;;
9508;SDS011;4792;50.088;8.122;2023-05-10T13:33:03;5.57;;;1.10;;
9508;SDS011;4792;50.088;8.122;2023-05-10T13:35:31;2.50;;;1.07;;
9508;SDS011;4792;50.088;8.122;2023-05-10T13:37:59;1.57;;;1.20;;
9508;SDS011;4792;50.088;8.122;2023-05-10T13:40:27;2.93;;;1.10;;
9508;SDS011;4792;50.088;8.122;2023-05-10T13:42:55;0.97;;;0.93;;
9508;SDS011;4792;50.088;8.122;2023-05-10T13:45:23;3.43;;;1.13;;
9508;SDS011;4792;50.088;8.122;2023-05-10T13:47:50;2.07;;;1.30;;
9508;SDS011;4792;50.088;8.122;2023-05-10T13:50:20;1.60;;;0.90;;
9508;SDS011;4792;50.088;8.122;2023-05-10T13:52:48;0.83;;;0.77;;
9508;SDS011;4792;50.088;8.122;2023-05-10T13:55:16;4.20;;;1.00;;
9508;SDS011;4792;50.088;8.122;2023-05-10T13:57:44;2.40;;;0.97;;
9508;SDS011;4792;50.088;8.122;2023-05-10T14:00:12;4.10;;;1.00;;
9508;SDS011;4792;50.088;8.122;2023-05-10T14:02:41;1.20;;;1.10;;
9508;SDS011;4792;50.088;8.122;2023-05-10T14:05:09;1.63;;;1.10;;
9508;SDS011;4792;50.088;8.122;2023-05-10T14:07:39;2.00;;;1.07;;
9508;SDS011;4792;50.088;8.122;2023-05-10T14:10:07;1.73;;;1.20;;
9508;SDS011;4792;50.088;8.122;2023-05-10T14:12:35;1.73;;;1.00;;
9508;SDS011;4792;50.088;8.122;2023-05-10T14:15:03;3.00;;;1.10;;
9508;SDS011;4792;50.088;8.122;2023-05-10T14:17:33;2.00;;;0.90;;
9508;SDS011;4792;50.088;8.122;2023-05-10T14:20:01;3.80;;;1.20;;
9508;SDS011;4792;50.088;8.122;2023-05-10T14:22:29;2.27;;;1.00;;
9508;SDS011;4792;50.088;8.122;2023-05-10T14:24:59;0.83;;;0.83;;
9508;SDS011;4792;50.088;8.122;2023-05-10T14:27:27;1.70;;;1.23;;
9508;SDS011;4792;50.088;8.122;2023-05-10T14:29:55;1.63;;;1.10;;
9508;SDS011;4792;50.088;8.122;2023-05-10T14:32:23;1.20;;;1.10;;
9508;SDS011;4792;50.088;8.122;2023-05-10T14:34:51;1.40;;;1.30;;
9508;SDS011;4792;50.088;8.122;2023-05-10T14:37:18;2.70;;;1.30;;
9508;SDS011;4792;50.088;8.122;2023-05-10T14:39:47;2.23;;;1.30;;
9508;SDS011;4792;50.088;8.122;2023-05-10T14:42:16;1.77;;;1.30;;
9508;SDS011;4792;50.088;8.122;2023-05-10T14:44:44;2.50;;;1.27;;
9508;SDS011;4792;50.088;8.122;2023-05-10T14:47:12;3.33;;;1.30;;
9508;SDS011;4792;50.088;8.122;2023-05-10T14:49:40;1.53;;;1.00;;
9508;SDS011;4792;50.088;8.122;2023-05-10T14:52:08;1.77;;;1.10;;
9508;SDS011;4792;50.088;8.122;2023-05-10T14:54:36;1.77;;;1.23;;
9508;SDS011;4792;50.088;8.122;2023-05-10T14:57:04;1.00;;;0.90;;
9508;SDS011;4792;50.088;8.122;2023-05-10T14:59:34;1.53;;;1.17;;
9508;SDS011;4792;50.088;8.122;2023-05-10T15:02:02;2.47;;;1.20;;
9508;SDS011;4792;50.088;8.122;2023-05-10T15:04:30;4.40;;;1.30;;
9508;SDS011;4792;50.088;8.122;2023-05-10T15:06:59;3.10;;;1.20;;
9508;SDS011;4792;50.088;8.122;2023-05-10T15:09:27;2.60;;;1.40;;
9508;SDS011;4792;50.088;8.122;2023-05-10T15:11:54;3.43;;;1.17;;
9508;SDS011;4792;50.088;8.122;2023-05-10T15:14:22;3.10;;;1.50;;
9508;SDS011;4792;50.088;8.122;2023-05-10T15:16:51;3.23;;;1.27;;
9508;SDS011;4792;50.088;8.122;2023-05-10T15:19:19;1.40;;;1.20;;
9508;SDS011;4792;50.088;8.122;2023-05-10T15:21:47;2.57;;;1.27;;
9508;SDS011;4792;50.088;8.122;2023-05-10T15:24:15;2.43;;;1.40;;
9508;SDS011;4792;50.088;8.122;2023-05-10T15:26:43;2.60;;;1.20;;
9508;SDS011;4792;50.088;8.122;2023-05-10T15:29:11;1.50;;;1.27;;
9508;SDS011;4792;50.088;8.122;2023-05-10T15:31:46;2.87;;;1.30;;
9508;SDS011;4792;50.088;8.122;2023-05-10T15:34:15;1.70;;;1.27;;
9508;SDS011;4792;50.088;8.122;2023-05-10T15:36:44;3.63;;;1.30;;
9508;SDS011;4792;50.088;8.122;2023-05-10T15:39:12;1.63;;;1.27;;